sensor_id;sensor_type;location;lat;lon;timestamp;P1;durP1;ratioP1;P2;durP2;ratioP2
72125;SDS011;59999;51.676;22.650;2023-02-08T00:00:11;14.23;;;4.83;;
72125;SDS011;59999;51.676;22.650;2023-02-08T00:02:57;14.45;;;5.47;;
72125;SDS011;59999;51.676;22.650;2023-02-08T00:05:23;16.83;;;5.90;;
72125;SDS011;59999;51.676;22.650;2023-02-08T00:07:50;15.75;;;5.75;;
72125;SDS011;59999;51.676;22.650;2023-02-08T00:10:15;14.45;;;4.10;;
72125;SDS011;59999;51.676;22.650;2023-02-08T00:12:41;12.95;;;3.95;;
72125;SDS011;59999;51.676;22.650;2023-02-08T00:15:07;14.73;;;4.50;;
72125;SDS011;59999;51.676;22.650;2023-02-08T00:17:33;13.40;;;4.63;;
72125;SDS011;59999;51.676;22.650;2023-02-08T00:19:59;12.83;;;4.67;;
72125;SDS011;59999;51.676;22.650;2023-02-08T00:22:25;13.57;;;4.70;;
72125;SDS011;59999;51.676;22.650;2023-02-08T00:24:50;16.13;;;5.55;;
72125;SDS011;59999;51.676;22.650;2023-02-08T00:27:17;18.63;;;7.10;;
72125;SDS011;59999;51.676;22.650;2023-02-08T00:29:42;15.68;;;5.75;;
72125;SDS011;59999;51.676;22.650;2023-02-08T00:32:08;16.08;;;5.68;;
72125;SDS011;59999;51.676;22.650;2023-02-08T00:34:35;12.90;;;4.13;;
72125;SDS011;59999;51.676;22.650;2023-02-08T00:37:01;19.42;;;7.47;;
72125;SDS011;59999;51.676;22.650;2023-02-08T00:39:27;15.40;;;4.93;;
72125;SDS011;59999;51.676;22.650;2023-02-08T00:41:53;17.17;;;5.30;;
72125;SDS011;59999;51.676;22.650;2023-02-08T00:44:19;16.77;;;6.05;;
72125;SDS011;59999;51.676;22.650;2023-02-08T00:46:45;15.63;;;5.20;;
72125;SDS011;59999;51.676;22.650;2023-02-08T00:49:10;14.68;;;5.38;;
72125;SDS011;59999;51.676;22.650;2023-02-08T00:51:36;14.32;;;4.00;;
72125;SDS011;59999;51.676;22.650;2023-02-08T00:54:02;12.17;;;4.03;;
72125;SDS011;59999;51.676;22.650;2023-02-08T00:56:28;15.38;;;4.47;;
72125;SDS011;59999;51.676;22.650;2023-02-08T00:58:54;16.97;;;4.93;;
72125;SDS011;59999;51.676;22.650;2023-02-08T01:01:19;11.65;;;4.32;;
72125;SDS011;59999;51.676;22.650;2023-02-08T01:03:45;12.47;;;4.10;;
72125;SDS011;59999;51.676;22.650;2023-02-08T01:06:14;14.73;;;4.38;;
72125;SDS011;59999;51.676;22.650;2023-02-08T01:08:42;15.10;;;4.40;;
72125;SDS011;59999;51.676;22.650;2023-02-08T01:11:09;15.82;;;5.30;;
72125;SDS011;59999;51.676;22.650;2023-02-08T01:13:37;14.30;;;4.85;;
72125;SDS011;59999;51.676;22.650;2023-02-08T01:16:04;13.23;;;4.53;;
72125;SDS011;59999;51.676;22.650;2023-02-08T01:18:31;14.93;;;4.85;;
72125;SDS011;59999;51.676;22.650;2023-02-08T01:21:02;13.23;;;4.50;;
72125;SDS011;59999;51.676;22.650;2023-02-08T01:23:29;12.00;;;4.38;;
72125;SDS011;59999;51.676;22.650;2023-02-08T01:25:54;12.67;;;3.97;;
72125;SDS011;59999;51.676;22.650;2023-02-08T01:28:20;13.55;;;4.40;;
72125;SDS011;59999;51.676;22.650;2023-02-08T01:30:46;11.50;;;4.07;;
72125;SDS011;59999;51.676;22.650;2023-02-08T01:33:12;12.77;;;3.75;;
72125;SDS011;59999;51.676;22.650;2023-02-08T01:35:37;14.33;;;3.97;;
72125;SDS011;59999;51.676;22.650;2023-02-08T01:38:03;10.77;;;4.03;;
72125;SDS011;59999;51.676;22.650;2023-02-08T01:40:29;12.85;;;4.07;;
72125;SDS011;59999;51.676;22.650;2023-02-08T01:42:55;15.63;;;4.47;;
72125;SDS011;59999;51.676;22.650;2023-02-08T01:45:28;13.20;;;4.18;;
72125;SDS011;59999;51.676;22.650;2023-02-08T01:47:57;13.10;;;4.10;;
72125;SDS011;59999;51.676;22.650;2023-02-08T01:50:31;18.92;;;4.85;;
72125;SDS011;59999;51.676;22.650;2023-02-08T01:53:01;14.40;;;4.28;;
72125;SDS011;59999;51.676;22.650;2023-02-08T01:55:31;12.60;;;4.67;;
72125;SDS011;59999;51.676;22.650;2023-02-08T01:58:03;14.90;;;4.38;;
72125;SDS011;59999;51.676;22.650;2023-02-08T02:00:33;15.00;;;4.05;;
72125;SDS011;59999;51.676;22.650;2023-02-08T02:02:59;14.25;;;4.25;;
72125;SDS011;59999;51.676;22.650;2023-02-08T02:05:31;12.30;;;4.35;;
72125;SDS011;59999;51.676;22.650;2023-02-08T02:08:02;12.88;;;4.30;;
72125;SDS011;59999;51.676;22.650;2023-02-08T02:10:30;11.40;;;4.55;;
72125;SDS011;59999;51.676;22.650;2023-02-08T02:13:01;17.33;;;4.90;;
72125;SDS011;59999;51.676;22.650;2023-02-08T02:15:39;16.43;;;5.27;;
72125;SDS011;59999;51.676;22.650;2023-02-08T02:18:06;16.30;;;4.75;;
72125;SDS011;59999;51.676;22.650;2023-02-08T02:20:50;15.20;;;5.10;;
72125;SDS011;59999;51.676;22.650;2023-02-08T02:26:52;14.55;;;5.03;;
72125;SDS011;59999;51.676;22.650;2023-02-08T02:35:17;14.18;;;4.60;;
72125;SDS011;59999;51.676;22.650;2023-02-08T02:44:13;15.37;;;4.30;;
72125;SDS011;59999;51.676;22.650;2023-02-08T02:50:18;11.38;;;4.15;;
72125;SDS011;59999;51.676;22.650;2023-02-08T02:53:28;12.65;;;4.68;;
72125;SDS011;59999;51.676;22.650;2023-02-08T02:56:04;13.23;;;3.95;;
72125;SDS011;59999;51.676;22.650;2023-02-08T02:58:38;12.70;;;3.73;;
72125;SDS011;59999;51.676;22.650;2023-02-08T03:01:04;11.07;;;3.88;;
72125;SDS011;59999;51.676;22.650;2023-02-08T03:03:32;11.80;;;4.38;;
72125;SDS011;59999;51.676;22.650;2023-02-08T03:06:02;14.70;;;4.40;;
72125;SDS011;59999;51.676;22.650;2023-02-08T03:17:02;13.43;;;4.20;;
72125;SDS011;59999;51.676;22.650;2023-02-08T03:19:49;14.63;;;5.37;;
72125;SDS011;59999;51.676;22.650;2023-02-08T03:25:15;12.13;;;4.43;;
72125;SDS011;59999;51.676;22.650;2023-02-08T03:28:04;13.52;;;4.85;;
72125;SDS011;59999;51.676;22.650;2023-02-08T03:36:07;13.82;;;4.70;;
72125;SDS011;59999;51.676;22.650;2023-02-08T03:38:42;15.90;;;4.25;;
72125;SDS011;59999;51.676;22.650;2023-02-08T03:41:11;14.45;;;5.00;;
72125;SDS011;59999;51.676;22.650;2023-02-08T03:43:45;13.05;;;4.28;;
72125;SDS011;59999;51.676;22.650;2023-02-08T03:46:24;14.97;;;4.60;;
72125;SDS011;59999;51.676;22.650;2023-02-08T03:49:01;14.93;;;5.10;;
72125;SDS011;59999;51.676;22.650;2023-02-08T03:51:31;14.00;;;4.65;;
72125;SDS011;59999;51.676;22.650;2023-02-08T03:54:01;15.18;;;4.78;;
72125;SDS011;59999;51.676;22.650;2023-02-08T03:56:33;17.05;;;5.50;;
72125;SDS011;59999;51.676;22.650;2023-02-08T03:59:08;16.33;;;5.53;;
72125;SDS011;59999;51.676;22.650;2023-02-08T04:01:45;14.45;;;5.00;;
72125;SDS011;59999;51.676;22.650;2023-02-08T04:04:16;13.98;;;5.05;;
72125;SDS011;59999;51.676;22.650;2023-02-08T04:06:44;15.05;;;5.00;;
72125;SDS011;59999;51.676;22.650;2023-02-08T04:09:10;17.08;;;5.20;;
72125;SDS011;59999;51.676;22.650;2023-02-08T04:11:35;11.93;;;4.30;;
72125;SDS011;59999;51.676;22.650;2023-02-08T04:14:02;14.73;;;4.60;;
72125;SDS011;59999;51.676;22.650;2023-02-08T04:16:27;23.20;;;10.20;;
72125;SDS011;59999;51.676;22.650;2023-02-08T04:18:53;15.65;;;5.97;;
72125;SDS011;59999;51.676;22.650;2023-02-08T04:21:19;11.80;;;4.20;;
72125;SDS011;59999;51.676;22.650;2023-02-08T04:23:45;12.90;;;4.47;;
72125;SDS011;59999;51.676;22.650;2023-02-08T04:26:10;15.15;;;4.72;;
72125;SDS011;59999;51.676;22.650;2023-02-08T04:28:36;13.53;;;4.27;;
72125;SDS011;59999;51.676;22.650;2023-02-08T04:31:02;13.60;;;4.15;;
72125;SDS011;59999;51.676;22.650;2023-02-08T04:33:28;14.67;;;4.40;;
72125;SDS011;59999;51.676;22.650;2023-02-08T04:35:54;14.68;;;4.18;;
72125;SDS011;59999;51.676;22.650;2023-02-08T04:38:20;12.45;;;4.40;;
72125;SDS011;59999;51.676;22.650;2023-02-08T04:40:45;13.37;;;4.47;;
72125;SDS011;59999;51.676;22.650;2023-02-08T04:43:11;13.73;;;4.30;;
72125;SDS011;59999;51.676;22.650;2023-02-08T04:45:37;14.67;;;4.70;;
72125;SDS011;59999;51.676;22.650;2023-02-08T04:48:03;15.98;;;4.70;;
72125;SDS011;59999;51.676;22.650;2023-02-08T04:50:31;13.77;;;4.25;;
72125;SDS011;59999;51.676;22.650;2023-02-08T04:52:57;12.55;;;4.07;;
72125;SDS011;59999;51.676;22.650;2023-02-08T04:55:23;13.00;;;4.43;;
72125;SDS011;59999;51.676;22.650;2023-02-08T04:57:49;13.07;;;3.80;;
72125;SDS011;59999;51.676;22.650;2023-02-08T05:00:15;10.93;;;3.87;;
72125;SDS011;59999;51.676;22.650;2023-02-08T05:02:41;12.77;;;4.10;;
72125;SDS011;59999;51.676;22.650;2023-02-08T05:05:07;13.57;;;4.07;;
72125;SDS011;59999;51.676;22.650;2023-02-08T05:07:33;11.77;;;4.20;;
72125;SDS011;59999;51.676;22.650;2023-02-08T05:09:59;14.05;;;4.18;;
72125;SDS011;59999;51.676;22.650;2023-02-08T05:12:25;13.10;;;4.22;;
72125;SDS011;59999;51.676;22.650;2023-02-08T05:14:50;14.23;;;4.10;;
72125;SDS011;59999;51.676;22.650;2023-02-08T05:17:16;13.25;;;4.10;;
72125;SDS011;59999;51.676;22.650;2023-02-08T05:19:42;11.70;;;4.10;;
72125;SDS011;59999;51.676;22.650;2023-02-08T05:22:08;14.27;;;3.72;;
72125;SDS011;59999;51.676;22.650;2023-02-08T05:24:33;12.45;;;3.72;;
72125;SDS011;59999;51.676;22.650;2023-02-08T05:26:59;12.13;;;3.70;;
72125;SDS011;59999;51.676;22.650;2023-02-08T05:29:25;10.23;;;3.40;;
72125;SDS011;59999;51.676;22.650;2023-02-08T05:31:51;15.33;;;3.87;;
72125;SDS011;59999;51.676;22.650;2023-02-08T05:34:17;11.88;;;3.38;;
72125;SDS011;59999;51.676;22.650;2023-02-08T05:36:43;11.85;;;3.53;;
72125;SDS011;59999;51.676;22.650;2023-02-08T05:39:08;13.10;;;3.57;;
72125;SDS011;59999;51.676;22.650;2023-02-08T05:41:34;10.35;;;3.30;;
72125;SDS011;59999;51.676;22.650;2023-02-08T05:44:00;10.40;;;3.80;;
72125;SDS011;59999;51.676;22.650;2023-02-08T05:46:26;14.07;;;4.18;;
72125;SDS011;59999;51.676;22.650;2023-02-08T05:48:51;12.80;;;4.50;;
72125;SDS011;59999;51.676;22.650;2023-02-08T05:51:17;16.17;;;5.20;;
72125;SDS011;59999;51.676;22.650;2023-02-08T05:53:45;15.95;;;4.50;;
72125;SDS011;59999;51.676;22.650;2023-02-08T05:56:11;17.40;;;5.20;;
72125;SDS011;59999;51.676;22.650;2023-02-08T05:58:36;14.57;;;4.60;;
72125;SDS011;59999;51.676;22.650;2023-02-08T06:01:09;17.35;;;5.30;;
72125;SDS011;59999;51.676;22.650;2023-02-08T06:03:36;16.40;;;5.00;;
72125;SDS011;59999;51.676;22.650;2023-02-08T06:06:03;15.00;;;4.45;;
72125;SDS011;59999;51.676;22.650;2023-02-08T06:08:29;18.95;;;5.35;;
72125;SDS011;59999;51.676;22.650;2023-02-08T06:10:55;16.58;;;5.25;;
72125;SDS011;59999;51.676;22.650;2023-02-08T06:13:21;17.83;;;4.90;;
72125;SDS011;59999;51.676;22.650;2023-02-08T06:15:47;17.73;;;5.07;;
72125;SDS011;59999;51.676;22.650;2023-02-08T06:18:12;16.60;;;5.13;;
72125;SDS011;59999;51.676;22.650;2023-02-08T06:20:39;18.25;;;6.25;;
72125;SDS011;59999;51.676;22.650;2023-02-08T06:23:04;16.70;;;5.40;;
72125;SDS011;59999;51.676;22.650;2023-02-08T06:25:30;17.20;;;5.25;;
72125;SDS011;59999;51.676;22.650;2023-02-08T06:27:56;14.93;;;4.70;;
72125;SDS011;59999;51.676;22.650;2023-02-08T06:30:22;14.60;;;4.77;;
72125;SDS011;59999;51.676;22.650;2023-02-08T06:32:48;13.63;;;4.50;;
72125;SDS011;59999;51.676;22.650;2023-02-08T06:35:14;12.43;;;4.15;;
72125;SDS011;59999;51.676;22.650;2023-02-08T06:37:39;15.97;;;4.93;;
72125;SDS011;59999;51.676;22.650;2023-02-08T06:40:06;13.75;;;4.30;;
72125;SDS011;59999;51.676;22.650;2023-02-08T06:42:32;11.60;;;4.13;;
72125;SDS011;59999;51.676;22.650;2023-02-08T06:44:58;13.80;;;4.03;;
72125;SDS011;59999;51.676;22.650;2023-02-08T06:47:24;12.13;;;3.88;;
72125;SDS011;59999;51.676;22.650;2023-02-08T06:49:51;12.60;;;4.10;;
72125;SDS011;59999;51.676;22.650;2023-02-08T06:52:17;15.02;;;4.25;;
72125;SDS011;59999;51.676;22.650;2023-02-08T06:54:44;11.88;;;3.85;;
72125;SDS011;59999;51.676;22.650;2023-02-08T06:57:09;15.75;;;4.95;;
72125;SDS011;59999;51.676;22.650;2023-02-08T06:59:40;16.55;;;4.57;;
72125;SDS011;59999;51.676;22.650;2023-02-08T07:02:13;14.73;;;4.80;;
72125;SDS011;59999;51.676;22.650;2023-02-08T07:04:44;15.48;;;5.10;;
72125;SDS011;59999;51.676;22.650;2023-02-08T07:07:13;17.70;;;4.30;;
72125;SDS011;59999;51.676;22.650;2023-02-08T07:09:40;15.07;;;4.83;;
72125;SDS011;59999;51.676;22.650;2023-02-08T07:12:07;19.52;;;6.35;;
72125;SDS011;59999;51.676;22.650;2023-02-08T07:14:34;15.27;;;6.03;;
72125;SDS011;59999;51.676;22.650;2023-02-08T07:17:01;14.82;;;4.72;;
72125;SDS011;59999;51.676;22.650;2023-02-08T07:19:27;14.52;;;4.40;;
72125;SDS011;59999;51.676;22.650;2023-02-08T07:21:54;12.03;;;3.93;;
72125;SDS011;59999;51.676;22.650;2023-02-08T07:24:20;13.52;;;4.25;;
72125;SDS011;59999;51.676;22.650;2023-02-08T07:26:47;12.77;;;4.18;;
72125;SDS011;59999;51.676;22.650;2023-02-08T07:29:12;12.75;;;4.47;;
72125;SDS011;59999;51.676;22.650;2023-02-08T07:31:38;24.47;;;8.33;;
72125;SDS011;59999;51.676;22.650;2023-02-08T07:34:04;21.20;;;6.70;;
72125;SDS011;59999;51.676;22.650;2023-02-08T07:36:30;13.07;;;4.07;;
72125;SDS011;59999;51.676;22.650;2023-02-08T07:38:56;15.38;;;5.32;;
72125;SDS011;59999;51.676;22.650;2023-02-08T07:41:22;17.10;;;6.05;;
72125;SDS011;59999;51.676;22.650;2023-02-08T07:43:48;18.13;;;6.32;;
72125;SDS011;59999;51.676;22.650;2023-02-08T07:46:15;17.85;;;5.90;;
72125;SDS011;59999;51.676;22.650;2023-02-08T07:48:42;27.65;;;8.50;;
72125;SDS011;59999;51.676;22.650;2023-02-08T07:51:08;43.80;;;12.53;;
72125;SDS011;59999;51.676;22.650;2023-02-08T07:53:35;23.42;;;7.97;;
72125;SDS011;59999;51.676;22.650;2023-02-08T07:56:01;19.20;;;6.13;;
72125;SDS011;59999;51.676;22.650;2023-02-08T07:58:27;13.50;;;4.28;;
72125;SDS011;59999;51.676;22.650;2023-02-08T08:00:53;17.40;;;4.07;;
72125;SDS011;59999;51.676;22.650;2023-02-08T08:03:19;12.52;;;3.92;;
72125;SDS011;59999;51.676;22.650;2023-02-08T08:05:45;11.27;;;3.58;;
72125;SDS011;59999;51.676;22.650;2023-02-08T08:08:11;11.07;;;3.63;;
72125;SDS011;59999;51.676;22.650;2023-02-08T08:10:37;13.05;;;4.40;;
72125;SDS011;59999;51.676;22.650;2023-02-08T08:13:03;13.18;;;4.55;;
72125;SDS011;59999;51.676;22.650;2023-02-08T08:15:29;15.45;;;4.93;;
72125;SDS011;59999;51.676;22.650;2023-02-08T08:17:56;14.83;;;4.90;;
72125;SDS011;59999;51.676;22.650;2023-02-08T08:20:21;13.25;;;4.30;;
72125;SDS011;59999;51.676;22.650;2023-02-08T08:22:48;13.60;;;4.55;;
72125;SDS011;59999;51.676;22.650;2023-02-08T08:25:13;13.43;;;4.40;;
72125;SDS011;59999;51.676;22.650;2023-02-08T08:27:39;14.30;;;5.00;;
72125;SDS011;59999;51.676;22.650;2023-02-08T08:30:06;14.23;;;4.93;;
72125;SDS011;59999;51.676;22.650;2023-02-08T08:32:33;17.50;;;5.00;;
72125;SDS011;59999;51.676;22.650;2023-02-08T08:34:59;16.08;;;4.50;;
72125;SDS011;59999;51.676;22.650;2023-02-08T08:37:24;15.63;;;4.88;;
72125;SDS011;59999;51.676;22.650;2023-02-08T08:39:50;14.05;;;4.85;;
72125;SDS011;59999;51.676;22.650;2023-02-08T08:42:16;14.68;;;4.63;;
72125;SDS011;59999;51.676;22.650;2023-02-08T08:44:42;13.80;;;4.57;;
72125;SDS011;59999;51.676;22.650;2023-02-08T08:47:09;10.17;;;3.60;;
72125;SDS011;59999;51.676;22.650;2023-02-08T08:49:34;16.30;;;4.90;;
72125;SDS011;59999;51.676;22.650;2023-02-08T08:52:00;15.95;;;3.35;;
72125;SDS011;59999;51.676;22.650;2023-02-08T08:54:26;12.03;;;3.83;;
72125;SDS011;59999;51.676;22.650;2023-02-08T08:56:52;11.93;;;3.90;;
72125;SDS011;59999;51.676;22.650;2023-02-08T08:59:18;12.27;;;3.87;;
72125;SDS011;59999;51.676;22.650;2023-02-08T09:01:44;14.82;;;4.82;;
72125;SDS011;59999;51.676;22.650;2023-02-08T09:04:10;12.03;;;4.20;;
72125;SDS011;59999;51.676;22.650;2023-02-08T09:06:36;11.88;;;3.67;;
72125;SDS011;59999;51.676;22.650;2023-02-08T09:09:03;11.32;;;3.63;;
72125;SDS011;59999;51.676;22.650;2023-02-08T09:11:29;10.43;;;3.90;;
72125;SDS011;59999;51.676;22.650;2023-02-08T09:13:54;11.37;;;3.87;;
72125;SDS011;59999;51.676;22.650;2023-02-08T09:16:21;10.98;;;3.65;;
72125;SDS011;59999;51.676;22.650;2023-02-08T09:18:48;12.45;;;3.95;;
72125;SDS011;59999;51.676;22.650;2023-02-08T09:21:16;13.20;;;4.28;;
72125;SDS011;59999;51.676;22.650;2023-02-08T09:23:43;10.37;;;3.70;;
72125;SDS011;59999;51.676;22.650;2023-02-08T09:26:12;11.27;;;3.35;;
72125;SDS011;59999;51.676;22.650;2023-02-08T09:28:39;11.93;;;3.83;;
72125;SDS011;59999;51.676;22.650;2023-02-08T09:31:10;11.52;;;4.10;;
72125;SDS011;59999;51.676;22.650;2023-02-08T09:33:39;10.48;;;3.63;;
72125;SDS011;59999;51.676;22.650;2023-02-08T09:36:05;11.33;;;3.73;;
72125;SDS011;59999;51.676;22.650;2023-02-08T09:38:32;11.45;;;3.90;;
72125;SDS011;59999;51.676;22.650;2023-02-08T09:41:09;11.85;;;4.05;;
72125;SDS011;59999;51.676;22.650;2023-02-08T09:43:53;11.60;;;3.90;;
72125;SDS011;59999;51.676;22.650;2023-02-08T09:46:40;10.90;;;3.33;;
72125;SDS011;59999;51.676;22.650;2023-02-08T09:49:17;11.70;;;3.97;;
72125;SDS011;59999;51.676;22.650;2023-02-08T09:52:00;9.95;;;3.13;;
72125;SDS011;59999;51.676;22.650;2023-02-08T09:57:05;12.48;;;4.10;;
72125;SDS011;59999;51.676;22.650;2023-02-08T09:59:37;10.98;;;3.17;;
72125;SDS011;59999;51.676;22.650;2023-02-08T10:02:16;11.23;;;3.63;;
72125;SDS011;59999;51.676;22.650;2023-02-08T10:05:03;12.35;;;3.80;;
72125;SDS011;59999;51.676;22.650;2023-02-08T10:07:30;11.25;;;3.60;;
72125;SDS011;59999;51.676;22.650;2023-02-08T10:09:57;11.05;;;3.72;;
72125;SDS011;59999;51.676;22.650;2023-02-08T10:15:32;11.33;;;3.60;;
72125;SDS011;59999;51.676;22.650;2023-02-08T10:26:25;11.57;;;3.95;;
72125;SDS011;59999;51.676;22.650;2023-02-08T10:29:13;10.13;;;3.23;;
72125;SDS011;59999;51.676;22.650;2023-02-08T10:34:40;8.90;;;3.33;;
72125;SDS011;59999;51.676;22.650;2023-02-08T10:37:11;9.02;;;3.17;;
72125;SDS011;59999;51.676;22.650;2023-02-08T10:39:39;10.40;;;3.70;;
72125;SDS011;59999;51.676;22.650;2023-02-08T10:42:13;9.33;;;3.20;;
72125;SDS011;59999;51.676;22.650;2023-02-08T10:52:27;8.18;;;2.97;;
72125;SDS011;59999;51.676;22.650;2023-02-08T10:54:55;11.38;;;3.42;;
72125;SDS011;59999;51.676;22.650;2023-02-08T10:57:23;11.15;;;3.60;;
72125;SDS011;59999;51.676;22.650;2023-02-08T11:02:33;12.13;;;3.78;;
72125;SDS011;59999;51.676;22.650;2023-02-08T11:07:29;12.75;;;3.63;;
72125;SDS011;59999;51.676;22.650;2023-02-08T11:10:28;11.60;;;3.67;;
72125;SDS011;59999;51.676;22.650;2023-02-08T11:12:59;10.47;;;3.53;;
72125;SDS011;59999;51.676;22.650;2023-02-08T11:15:26;8.80;;;2.78;;
72125;SDS011;59999;51.676;22.650;2023-02-08T11:18:00;8.80;;;3.00;;
72125;SDS011;59999;51.676;22.650;2023-02-08T11:20:32;9.88;;;3.40;;
72125;SDS011;59999;51.676;22.650;2023-02-08T11:23:04;7.18;;;2.20;;
72125;SDS011;59999;51.676;22.650;2023-02-08T11:25:43;6.37;;;1.73;;
72125;SDS011;59999;51.676;22.650;2023-02-08T11:28:25;4.75;;;1.35;;
72125;SDS011;59999;51.676;22.650;2023-02-08T11:30:54;8.13;;;2.30;;
72125;SDS011;59999;51.676;22.650;2023-02-08T11:33:22;8.83;;;2.63;;
72125;SDS011;59999;51.676;22.650;2023-02-08T11:35:52;10.63;;;2.92;;
72125;SDS011;59999;51.676;22.650;2023-02-08T11:38:20;10.35;;;2.90;;
72125;SDS011;59999;51.676;22.650;2023-02-08T11:40:52;7.90;;;2.47;;
72125;SDS011;59999;51.676;22.650;2023-02-08T11:43:25;8.02;;;2.20;;
72125;SDS011;59999;51.676;22.650;2023-02-08T11:45:54;8.03;;;2.60;;
72125;SDS011;59999;51.676;22.650;2023-02-08T11:49:04;8.95;;;2.60;;
72125;SDS011;59999;51.676;22.650;2023-02-08T11:54:30;10.45;;;2.92;;
72125;SDS011;59999;51.676;22.650;2023-02-08T11:57:03;10.95;;;3.30;;
72125;SDS011;59999;51.676;22.650;2023-02-08T11:59:39;9.63;;;3.27;;
72125;SDS011;59999;51.676;22.650;2023-02-08T12:02:48;9.23;;;3.10;;
72125;SDS011;59999;51.676;22.650;2023-02-08T12:04:58;11.30;;;3.45;;
72125;SDS011;59999;51.676;22.650;2023-02-08T12:10:15;7.25;;;2.70;;
72125;SDS011;59999;51.676;22.650;2023-02-08T12:18:33;11.77;;;3.42;;
72125;SDS011;59999;51.676;22.650;2023-02-08T12:21:06;9.40;;;3.15;;
72125;SDS011;59999;51.676;22.650;2023-02-08T12:26:14;10.27;;;3.50;;
72125;SDS011;59999;51.676;22.650;2023-02-08T12:31:25;11.80;;;3.70;;
72125;SDS011;59999;51.676;22.650;2023-02-08T12:43:04;8.70;;;3.40;;
72125;SDS011;59999;51.676;22.650;2023-02-08T12:53:24;10.30;;;3.23;;
72125;SDS011;59999;51.676;22.650;2023-02-08T12:55:56;7.78;;;2.55;;
72125;SDS011;59999;51.676;22.650;2023-02-08T12:58:27;9.25;;;2.72;;
72125;SDS011;59999;51.676;22.650;2023-02-08T13:01:01;10.52;;;3.00;;
72125;SDS011;59999;51.676;22.650;2023-02-08T13:06:29;10.80;;;2.80;;
72125;SDS011;59999;51.676;22.650;2023-02-08T13:12:05;8.77;;;2.65;;
72125;SDS011;59999;51.676;22.650;2023-02-08T13:14:55;8.90;;;2.95;;
72125;SDS011;59999;51.676;22.650;2023-02-08T13:17:27;9.10;;;2.75;;
72125;SDS011;59999;51.676;22.650;2023-02-08T13:20:15;10.23;;;2.97;;
72125;SDS011;59999;51.676;22.650;2023-02-08T13:22:51;8.32;;;2.70;;
72125;SDS011;59999;51.676;22.650;2023-02-08T13:25:28;9.38;;;2.95;;
72125;SDS011;59999;51.676;22.650;2023-02-08T13:28:03;12.18;;;3.13;;
72125;SDS011;59999;51.676;22.650;2023-02-08T13:30:31;10.57;;;3.53;;
72125;SDS011;59999;51.676;22.650;2023-02-08T13:33:00;10.63;;;3.27;;
72125;SDS011;59999;51.676;22.650;2023-02-08T13:35:36;10.23;;;3.05;;
72125;SDS011;59999;51.676;22.650;2023-02-08T13:38:05;9.40;;;3.13;;
72125;SDS011;59999;51.676;22.650;2023-02-08T13:40:41;8.60;;;2.83;;
72125;SDS011;59999;51.676;22.650;2023-02-08T13:43:26;11.30;;;3.47;;
72125;SDS011;59999;51.676;22.650;2023-02-08T13:45:57;11.47;;;3.10;;
72125;SDS011;59999;51.676;22.650;2023-02-08T13:48:24;10.38;;;3.25;;
72125;SDS011;59999;51.676;22.650;2023-02-08T13:56:03;11.13;;;3.80;;
72125;SDS011;59999;51.676;22.650;2023-02-08T13:58:35;10.67;;;3.67;;
72125;SDS011;59999;51.676;22.650;2023-02-08T14:01:14;10.68;;;3.50;;
72125;SDS011;59999;51.676;22.650;2023-02-08T14:06:43;11.90;;;3.88;;
72125;SDS011;59999;51.676;22.650;2023-02-08T14:09:19;11.45;;;4.22;;
72125;SDS011;59999;51.676;22.650;2023-02-08T14:12:23;10.67;;;4.37;;
72125;SDS011;59999;51.676;22.650;2023-02-08T14:39:35;12.77;;;4.72;;
72125;SDS011;59999;51.676;22.650;2023-02-08T14:42:02;16.65;;;6.20;;
72125;SDS011;59999;51.676;22.650;2023-02-08T14:49:51;24.63;;;10.25;;
72125;SDS011;59999;51.676;22.650;2023-02-08T14:52:27;21.23;;;7.95;;
72125;SDS011;59999;51.676;22.650;2023-02-08T14:55:05;19.98;;;7.68;;
72125;SDS011;59999;51.676;22.650;2023-02-08T14:57:39;21.20;;;8.03;;
72125;SDS011;59999;51.676;22.650;2023-02-08T15:00:07;18.35;;;7.47;;
72125;SDS011;59999;51.676;22.650;2023-02-08T15:02:43;16.75;;;6.68;;
72125;SDS011;59999;51.676;22.650;2023-02-08T15:05:20;13.32;;;4.78;;
72125;SDS011;59999;51.676;22.650;2023-02-08T15:07:51;15.40;;;5.53;;
72125;SDS011;59999;51.676;22.650;2023-02-08T15:10:20;20.27;;;8.00;;
72125;SDS011;59999;51.676;22.650;2023-02-08T15:12:49;20.58;;;8.23;;
72125;SDS011;59999;51.676;22.650;2023-02-08T15:15:27;23.20;;;8.88;;
72125;SDS011;59999;51.676;22.650;2023-02-08T15:17:59;18.90;;;7.57;;
72125;SDS011;59999;51.676;22.650;2023-02-08T15:20:28;15.60;;;6.53;;
72125;SDS011;59999;51.676;22.650;2023-02-08T15:26:02;19.08;;;7.65;;
72125;SDS011;59999;51.676;22.650;2023-02-08T15:28:49;18.50;;;7.75;;
72125;SDS011;59999;51.676;22.650;2023-02-08T15:31:19;22.65;;;7.85;;
72125;SDS011;59999;51.676;22.650;2023-02-08T15:33:47;22.25;;;7.60;;
72125;SDS011;59999;51.676;22.650;2023-02-08T15:39:08;29.83;;;10.15;;
72125;SDS011;59999;51.676;22.650;2023-02-08T15:41:41;30.90;;;11.27;;
72125;SDS011;59999;51.676;22.650;2023-02-08T15:44:20;35.33;;;12.98;;
72125;SDS011;59999;51.676;22.650;2023-02-08T15:46:48;30.67;;;11.37;;
72125;SDS011;59999;51.676;22.650;2023-02-08T15:49:18;30.17;;;11.13;;
72125;SDS011;59999;51.676;22.650;2023-02-08T15:51:49;36.63;;;14.15;;
72125;SDS011;59999;51.676;22.650;2023-02-08T15:54:16;29.00;;;11.30;;
72125;SDS011;59999;51.676;22.650;2023-02-08T15:57:04;32.85;;;12.65;;
72125;SDS011;59999;51.676;22.650;2023-02-08T15:59:35;35.37;;;12.33;;
72125;SDS011;59999;51.676;22.650;2023-02-08T16:02:20;22.38;;;8.45;;
72125;SDS011;59999;51.676;22.650;2023-02-08T16:04:47;23.95;;;8.35;;
72125;SDS011;59999;51.676;22.650;2023-02-08T16:10:02;30.80;;;8.77;;
72125;SDS011;59999;51.676;22.650;2023-02-08T16:12:30;28.30;;;9.07;;
72125;SDS011;59999;51.676;22.650;2023-02-08T16:14:57;29.02;;;8.93;;
72125;SDS011;59999;51.676;22.650;2023-02-08T16:17:35;27.80;;;9.68;;
72125;SDS011;59999;51.676;22.650;2023-02-08T16:20:25;31.52;;;11.32;;
72125;SDS011;59999;51.676;22.650;2023-02-08T16:22:57;30.70;;;10.50;;
72125;SDS011;59999;51.676;22.650;2023-02-08T16:30:50;40.13;;;14.07;;
72125;SDS011;59999;51.676;22.650;2023-02-08T16:33:16;35.38;;;12.77;;
72125;SDS011;59999;51.676;22.650;2023-02-08T16:35:43;52.42;;;18.13;;
72125;SDS011;59999;51.676;22.650;2023-02-08T16:38:11;56.37;;;19.00;;
72125;SDS011;59999;51.676;22.650;2023-02-08T16:43:29;41.17;;;12.77;;
72125;SDS011;59999;51.676;22.650;2023-02-08T16:48:47;31.90;;;11.35;;
72125;SDS011;59999;51.676;22.650;2023-02-08T16:51:16;29.07;;;9.40;;
72125;SDS011;59999;51.676;22.650;2023-02-08T16:53:43;32.75;;;10.43;;
72125;SDS011;59999;51.676;22.650;2023-02-08T16:56:11;36.40;;;11.25;;
72125;SDS011;59999;51.676;22.650;2023-02-08T16:58:38;29.65;;;10.75;;
72125;SDS011;59999;51.676;22.650;2023-02-08T17:01:03;40.93;;;15.30;;
72125;SDS011;59999;51.676;22.650;2023-02-08T17:04:07;34.33;;;11.20;;
72125;SDS011;59999;51.676;22.650;2023-02-08T17:07:15;30.83;;;11.18;;
72125;SDS011;59999;51.676;22.650;2023-02-08T17:10:29;32.55;;;12.00;;
72125;SDS011;59999;51.676;22.650;2023-02-08T17:12:57;32.35;;;12.52;;
72125;SDS011;59999;51.676;22.650;2023-02-08T17:15:24;38.00;;;11.57;;
72125;SDS011;59999;51.676;22.650;2023-02-08T17:17:50;31.73;;;11.75;;
72125;SDS011;59999;51.676;22.650;2023-02-08T17:22:53;34.47;;;12.70;;